createdAt,value
2018-08-30T00:00:03.208Z,0.00
2018-08-30T00:00:39.524Z,0.00
2018-08-30T00:01:15.040Z,0.00
2018-08-30T00:01:50.354Z,0.00
2018-08-30T00:02:25.851Z,0.00
2018-08-30T00:03:01.393Z,0.00
2018-08-30T00:03:37.204Z,0.00
2018-08-30T00:04:12.565Z,0.00
2018-08-30T00:04:48.157Z,0.00
2018-08-30T00:05:23.516Z,0.00
2018-08-30T00:05:58.720Z,0.00
2018-08-30T00:06:34.120Z,0.00
2018-08-30T00:07:09.267Z,0.00
2018-08-30T00:07:44.689Z,0.00
2018-08-30T00:08:20.331Z,0.00
2018-08-30T00:08:55.889Z,0.00
2018-08-30T00:09:31.236Z,0.00
2018-08-30T00:10:06.584Z,0.00
2018-08-30T00:10:41.966Z,0.00
2018-08-30T00:11:17.413Z,0.00
2018-08-30T00:11:52.745Z,0.00
2018-08-30T00:12:28.005Z,0.00
2018-08-30T00:13:03.442Z,0.00
2018-08-30T00:13:39.668Z,0.00
2018-08-30T00:14:14.910Z,0.00
2018-08-30T00:14:50.213Z,0.00
2018-08-30T00:15:25.564Z,0.00
2018-08-30T00:16:01.211Z,0.00
2018-08-30T00:16:36.522Z,0.00
2018-08-30T00:17:11.635Z,0.00
2018-08-30T00:17:47.125Z,0.00
2018-08-30T00:18:22.658Z,0.00
2018-08-30T00:18:58.218Z,0.00
2018-08-30T00:19:33.568Z,0.00
2018-08-30T00:20:09.129Z,0.00
2018-08-30T00:20:44.537Z,0.00
2018-08-30T00:21:19.776Z,0.00
2018-08-30T00:21:55.222Z,0.00
2018-08-30T00:22:30.724Z,0.00
2018-08-30T00:23:06.074Z,0.00
2018-08-30T00:23:41.357Z,0.00
2018-08-30T00:24:16.654Z,0.00
2018-08-30T00:24:52.066Z,0.00
2018-08-30T00:25:27.713Z,0.00
2018-08-30T00:26:02.999Z,0.00
2018-08-30T00:26:38.412Z,0.00
2018-08-30T00:27:13.778Z,0.00
2018-08-30T00:27:49.083Z,0.00
2018-08-30T00:28:24.321Z,0.00
2018-08-30T00:28:59.747Z,0.00
2018-08-30T00:29:35.367Z,0.00
2018-08-30T00:30:10.699Z,0.00
2018-08-30T00:30:46.100Z,0.00
2018-08-30T00:31:21.768Z,0.00
2018-08-30T00:31:57.096Z,0.00
2018-08-30T00:32:32.434Z,0.00
2018-08-30T00:33:07.778Z,0.00
2018-08-30T00:33:43.287Z,0.00
2018-08-30T00:34:18.544Z,0.00
2018-08-30T00:34:53.903Z,0.00
2018-08-30T00:35:29.239Z,0.00
2018-08-30T00:36:04.578Z,0.00
2018-08-30T00:36:39.725Z,0.00
2018-08-30T00:37:15.265Z,0.00
2018-08-30T00:37:50.451Z,0.00
2018-08-30T00:38:25.801Z,0.00
2018-08-30T00:39:00.937Z,0.00
2018-08-30T00:39:36.261Z,0.00
2018-08-30T00:40:11.575Z,0.00
2018-08-30T00:40:46.695Z,0.00
2018-08-30T00:41:21.953Z,0.00
2018-08-30T00:41:57.511Z,0.00
2018-08-30T00:42:32.806Z,0.00
2018-08-30T00:43:08.117Z,0.00
2018-08-30T00:43:43.337Z,0.00
2018-08-30T00:44:18.610Z,0.00
2018-08-30T00:44:53.928Z,0.00
2018-08-30T00:45:29.325Z,0.00
2018-08-30T00:46:04.837Z,0.00
2018-08-30T00:46:40.413Z,0.00
2018-08-30T00:47:15.948Z,0.00
2018-08-30T00:47:51.356Z,0.00
2018-08-30T00:48:26.788Z,0.00
2018-08-30T00:49:02.293Z,0.00
2018-08-30T00:49:37.627Z,0.00
2018-08-30T00:50:13.233Z,0.00
2018-08-30T00:50:49.269Z,0.00
2018-08-30T00:51:24.918Z,0.00
2018-08-30T00:52:00.232Z,0.00
2018-08-30T00:52:35.448Z,0.00
2018-08-30T00:53:10.865Z,0.00
2018-08-30T00:53:46.294Z,0.00
2018-08-30T00:54:21.449Z,0.00
2018-08-30T00:54:56.746Z,0.00
2018-08-30T00:55:31.976Z,0.00
2018-08-30T00:56:07.502Z,0.00
2018-08-30T00:56:43.044Z,0.00
2018-08-30T00:57:18.573Z,0.00
2018-08-30T00:57:54.205Z,0.00
2018-08-30T00:58:29.727Z,0.00
2018-08-30T00:59:05.251Z,0.00
2018-08-30T00:59:40.892Z,0.00
2018-08-30T01:00:16.214Z,0.00
2018-08-30T01:00:51.903Z,0.00
2018-08-30T01:01:27.260Z,0.00
2018-08-30T01:02:02.668Z,0.00
2018-08-30T01:02:38.190Z,0.00
2018-08-30T01:03:13.503Z,0.00
2018-08-30T01:03:49.030Z,0.00
2018-08-30T01:04:24.558Z,0.00
2018-08-30T01:05:00.060Z,0.00
2018-08-30T01:05:35.621Z,0.00
2018-08-30T01:06:11.048Z,0.00
2018-08-30T01:06:46.869Z,0.00
2018-08-30T01:07:22.306Z,0.00
2018-08-30T01:07:57.732Z,0.00
2018-08-30T01:08:33.448Z,0.00
2018-08-30T01:09:09.291Z,0.00
2018-08-30T01:09:45.026Z,0.00
2018-08-30T01:10:20.240Z,0.00
2018-08-30T01:10:56.078Z,0.00
2018-08-30T01:11:31.334Z,0.00
2018-08-30T01:12:06.644Z,0.00
2018-08-30T01:12:42.502Z,0.00
2018-08-30T01:13:17.828Z,0.00
2018-08-30T01:13:53.166Z,0.00
2018-08-30T01:14:28.993Z,0.00
2018-08-30T01:15:04.509Z,0.00
2018-08-30T01:15:40.134Z,0.00
2018-08-30T01:16:15.782Z,0.00
2018-08-30T01:16:51.496Z,0.00
2018-08-30T01:17:27.029Z,0.00
2018-08-30T01:18:02.487Z,0.00
2018-08-30T01:18:37.608Z,0.00
2018-08-30T01:19:13.032Z,0.00
2018-08-30T01:19:48.551Z,0.00
2018-08-30T01:20:23.892Z,0.00
2018-08-30T01:20:59.390Z,0.00
2018-08-30T01:21:34.871Z,0.00
2018-08-30T01:22:10.558Z,0.00
2018-08-30T01:22:46.626Z,0.00
2018-08-30T01:23:21.886Z,0.00
2018-08-30T01:23:57.284Z,0.00
2018-08-30T01:24:32.622Z,0.00
2018-08-30T01:25:07.719Z,0.00
2018-08-30T01:25:43.169Z,0.00
2018-08-30T01:26:18.618Z,0.00
2018-08-30T01:26:53.915Z,0.00
2018-08-30T01:27:29.029Z,0.00
2018-08-30T01:28:04.662Z,0.00
2018-08-30T01:28:39.786Z,0.00
2018-08-30T01:29:14.901Z,0.00
2018-08-30T01:29:50.016Z,0.00
2018-08-30T01:30:25.275Z,0.00
2018-08-30T01:31:00.471Z,0.00
2018-08-30T01:31:35.933Z,0.00
2018-08-30T01:32:11.042Z,0.00
2018-08-30T01:32:46.173Z,0.00
2018-08-30T01:33:21.613Z,0.00
2018-08-30T01:33:57.235Z,0.00
2018-08-30T01:34:32.287Z,0.00
2018-08-30T01:35:07.598Z,0.00
2018-08-30T01:35:42.713Z,0.00
2018-08-30T01:36:18.169Z,0.00
2018-08-30T01:36:53.278Z,0.00
2018-08-30T01:37:28.452Z,0.00
2018-08-30T01:38:03.852Z,0.00
2018-08-30T01:38:38.969Z,0.00
2018-08-30T01:39:14.402Z,0.00
2018-08-30T01:39:49.787Z,0.00
2018-08-30T01:40:25.144Z,0.00
2018-08-30T01:41:00.564Z,0.00
2018-08-30T01:41:35.906Z,0.00
2018-08-30T01:42:11.418Z,0.00
2018-08-30T01:42:46.644Z,0.00
2018-08-30T01:43:22.591Z,0.00
2018-08-30T01:43:57.780Z,0.00
2018-08-30T01:44:33.245Z,0.00
2018-08-30T01:45:08.751Z,0.00
2018-08-30T01:45:44.483Z,0.00
2018-08-30T01:46:19.845Z,0.00
2018-08-30T01:46:55.048Z,0.00
2018-08-30T01:47:30.711Z,0.00
2018-08-30T01:48:06.301Z,0.00
2018-08-30T01:48:41.843Z,0.00
2018-08-30T01:49:17.263Z,0.00
2018-08-30T01:49:52.546Z,0.00
2018-08-30T01:50:28.088Z,0.00
2018-08-30T01:51:03.393Z,0.00
2018-08-30T01:51:39.060Z,0.00
2018-08-30T01:52:14.230Z,0.00
2018-08-30T01:52:49.859Z,0.00
2018-08-30T01:53:25.218Z,0.00
2018-08-30T01:54:00.432Z,0.00
2018-08-30T01:54:35.853Z,0.00
2018-08-30T01:55:11.271Z,0.00
2018-08-30T01:55:46.501Z,0.00
2018-08-30T01:56:21.837Z,0.00
2018-08-30T01:56:57.081Z,0.00
2018-08-30T01:57:32.397Z,0.00
2018-08-30T01:58:07.621Z,0.00
2018-08-30T01:58:43.061Z,0.00
2018-08-30T01:59:18.353Z,0.00
2018-08-30T01:59:53.799Z,0.00
2018-08-30T02:00:29.332Z,0.00
2018-08-30T02:01:04.662Z,0.00
2018-08-30T02:01:40.051Z,0.00
2018-08-30T02:02:15.322Z,0.00
2018-08-30T02:02:50.660Z,0.00
2018-08-30T02:03:25.960Z,0.00
2018-08-30T02:04:01.400Z,0.00
2018-08-30T02:04:36.735Z,0.00
2018-08-30T02:05:12.168Z,0.00
2018-08-30T02:05:47.905Z,0.00
2018-08-30T02:06:23.252Z,0.00
2018-08-30T02:06:58.676Z,0.00
2018-08-30T02:07:34.191Z,0.00
2018-08-30T02:08:09.710Z,0.00
2018-08-30T02:08:44.947Z,0.00
2018-08-30T02:09:20.332Z,0.00
2018-08-30T02:09:55.876Z,0.00
2018-08-30T02:10:31.087Z,0.00
2018-08-30T02:11:06.337Z,0.00
2018-08-30T02:11:41.489Z,0.00
2018-08-30T02:12:17.303Z,0.00
2018-08-30T02:12:52.542Z,0.00
2018-08-30T02:13:27.959Z,0.00
2018-08-30T02:14:03.182Z,0.00
2018-08-30T02:14:38.696Z,0.00
2018-08-30T02:15:13.931Z,0.00
2018-08-30T02:15:49.540Z,0.00
2018-08-30T02:16:25.264Z,0.00
2018-08-30T02:17:00.678Z,0.00
2018-08-30T02:17:36.016Z,0.00
2018-08-30T02:18:11.632Z,0.00
2018-08-30T02:18:46.754Z,0.00
2018-08-30T02:19:22.139Z,0.00
2018-08-30T02:19:57.577Z,0.00
2018-08-30T02:20:32.573Z,0.00
2018-08-30T02:21:08.182Z,0.00
2018-08-30T02:21:43.643Z,0.00
2018-08-30T02:22:19.047Z,0.00
2018-08-30T02:22:54.216Z,0.00
2018-08-30T02:23:30.028Z,0.00
2018-08-30T02:24:05.441Z,0.00
2018-08-30T02:24:40.480Z,0.00
2018-08-30T02:25:15.912Z,0.00
2018-08-30T02:25:51.492Z,0.00
2018-08-30T02:26:26.682Z,0.00
2018-08-30T02:27:01.834Z,0.00
2018-08-30T02:27:37.408Z,0.00
2018-08-30T02:28:12.508Z,0.00
2018-08-30T02:28:48.048Z,0.00
2018-08-30T02:29:23.357Z,0.00
2018-08-30T02:29:58.588Z,0.00
2018-08-30T02:30:34.003Z,0.00
2018-08-30T02:31:09.334Z,0.00
2018-08-30T02:31:44.651Z,0.00
2018-08-30T02:32:20.079Z,0.00
2018-08-30T02:32:55.708Z,0.00
2018-08-30T02:33:31.411Z,0.00
2018-08-30T02:34:06.962Z,0.00
2018-08-30T02:34:42.299Z,0.00
2018-08-30T02:35:17.728Z,0.00
2018-08-30T02:35:53.051Z,0.00
2018-08-30T02:36:28.582Z,0.00
2018-08-30T02:37:03.607Z,0.00
2018-08-30T02:37:38.745Z,0.00
2018-08-30T02:38:14.039Z,0.00
2018-08-30T02:38:49.476Z,0.00
2018-08-30T02:39:24.599Z,0.00
2018-08-30T02:39:59.940Z,0.00
2018-08-30T02:40:35.684Z,0.00
2018-08-30T02:41:11.033Z,0.00
2018-08-30T02:41:46.157Z,0.00
2018-08-30T02:42:21.738Z,0.00
2018-08-30T02:42:56.881Z,0.00
2018-08-30T02:43:32.113Z,0.00
2018-08-30T02:44:07.438Z,0.00
2018-08-30T02:44:42.748Z,0.00
2018-08-30T02:45:17.982Z,0.00
2018-08-30T02:45:53.095Z,0.00
2018-08-30T02:46:28.462Z,0.00
2018-08-30T02:47:03.716Z,0.00
2018-08-30T02:47:38.965Z,0.00
2018-08-30T02:48:14.369Z,0.00
2018-08-30T02:48:49.937Z,0.00
2018-08-30T02:49:25.403Z,0.00
2018-08-30T02:50:00.762Z,0.00
2018-08-30T02:50:35.921Z,0.00
2018-08-30T02:51:11.782Z,0.00
2018-08-30T02:51:47.292Z,0.00
2018-08-30T02:52:22.811Z,0.00
2018-08-30T02:52:58.145Z,0.00
2018-08-30T02:53:33.669Z,0.00
2018-08-30T02:54:09.176Z,0.00
2018-08-30T02:54:44.715Z,0.00
2018-08-30T02:55:20.009Z,0.00
2018-08-30T02:55:55.130Z,0.00
2018-08-30T02:56:30.752Z,0.00
2018-08-30T02:57:06.093Z,0.00
2018-08-30T02:57:41.443Z,0.00
2018-08-30T02:58:16.560Z,0.00
2018-08-30T02:58:51.874Z,0.00
2018-08-30T02:59:26.985Z,0.00
2018-08-30T03:00:02.439Z,0.00
2018-08-30T03:00:37.752Z,0.00
2018-08-30T03:01:13.171Z,0.00
2018-08-30T03:01:48.787Z,0.00
2018-08-30T03:02:24.169Z,0.00
2018-08-30T03:02:59.297Z,0.00
2018-08-30T03:03:34.740Z,0.00
2018-08-30T03:04:10.042Z,0.00
2018-08-30T03:04:45.564Z,0.00
2018-08-30T03:05:21.252Z,0.00
2018-08-30T03:05:56.598Z,0.00
2018-08-30T03:06:32.408Z,0.00
2018-08-30T03:07:07.817Z,0.00
2018-08-30T03:07:43.374Z,0.00
2018-08-30T03:08:18.698Z,0.00
2018-08-30T03:08:53.823Z,0.00
2018-08-30T03:09:29.223Z,0.00
2018-08-30T03:10:04.764Z,0.00
2018-08-30T03:10:41.906Z,0.00
2018-08-30T03:11:17.135Z,0.00
2018-08-30T03:11:53.047Z,0.00
2018-08-30T03:12:28.458Z,0.00
2018-08-30T03:13:03.990Z,0.00
2018-08-30T03:13:39.391Z,0.00
2018-08-30T03:14:14.701Z,0.00
2018-08-30T03:14:50.038Z,0.00
2018-08-30T03:15:25.432Z,0.00
2018-08-30T03:16:01.066Z,0.00
2018-08-30T03:16:36.237Z,0.00
2018-08-30T03:17:11.679Z,0.00
2018-08-30T03:17:46.698Z,0.00
2018-08-30T03:18:21.844Z,0.00
2018-08-30T03:18:57.269Z,0.00
2018-08-30T03:19:32.764Z,0.00
2018-08-30T03:20:08.175Z,0.00
2018-08-30T03:20:43.518Z,0.00
2018-08-30T03:21:18.848Z,0.00
2018-08-30T03:21:54.087Z,0.00
2018-08-30T03:22:29.501Z,0.00
2018-08-30T03:23:04.921Z,0.00
2018-08-30T03:23:40.358Z,0.00
2018-08-30T03:24:15.967Z,0.00
2018-08-30T03:24:51.776Z,0.00
2018-08-30T03:25:27.392Z,0.00
2018-08-30T03:26:02.756Z,0.00
2018-08-30T03:26:38.106Z,0.00
2018-08-30T03:27:13.409Z,0.00
2018-08-30T03:27:48.910Z,0.00
2018-08-30T03:28:24.115Z,0.00
2018-08-30T03:28:59.361Z,0.00
2018-08-30T03:29:34.586Z,0.00
2018-08-30T03:30:09.998Z,0.00
2018-08-30T03:30:45.705Z,0.00
2018-08-30T03:31:21.363Z,0.00
2018-08-30T03:31:56.717Z,0.00
2018-08-30T03:32:32.023Z,0.00
2018-08-30T03:33:07.382Z,0.00
2018-08-30T03:33:42.613Z,0.00
2018-08-30T03:34:17.810Z,0.00
2018-08-30T03:34:53.362Z,0.00
2018-08-30T03:35:28.672Z,0.00
2018-08-30T03:36:03.805Z,0.00
2018-08-30T03:36:38.970Z,0.00
2018-08-30T03:37:14.259Z,0.00
2018-08-30T03:37:49.683Z,0.00
2018-08-30T03:38:25.094Z,0.00
2018-08-30T03:39:00.628Z,0.00
2018-08-30T03:39:35.885Z,0.00
2018-08-30T03:40:11.288Z,0.00
2018-08-30T03:40:50.023Z,0.00
2018-08-30T03:41:25.462Z,0.00
2018-08-30T03:42:00.872Z,0.00
2018-08-30T03:42:36.514Z,0.00
2018-08-30T03:43:11.730Z,0.00
2018-08-30T03:43:46.966Z,0.00
2018-08-30T03:44:22.464Z,0.00
2018-08-30T03:44:57.770Z,0.00
2018-08-30T03:45:33.079Z,0.00
2018-08-30T03:46:08.530Z,0.00
2018-08-30T03:46:43.662Z,0.00
2018-08-30T03:47:18.993Z,0.00
2018-08-30T03:47:54.403Z,0.00
2018-08-30T03:48:29.549Z,0.00
2018-08-30T03:49:04.992Z,0.00
2018-08-30T03:49:40.298Z,0.00
2018-08-30T03:50:15.917Z,0.00
2018-08-30T03:50:51.443Z,0.00
2018-08-30T03:51:26.450Z,0.00
2018-08-30T03:52:01.854Z,0.00
2018-08-30T03:52:37.071Z,0.00
2018-08-30T03:53:12.507Z,0.00
2018-08-30T03:53:47.916Z,0.00
2018-08-30T03:54:23.298Z,0.00
2018-08-30T03:54:58.421Z,0.00
2018-08-30T03:55:33.735Z,0.00
2018-08-30T03:56:09.010Z,0.00
2018-08-30T03:56:44.328Z,0.00
2018-08-30T03:57:19.731Z,0.00
2018-08-30T03:57:55.159Z,0.00
2018-08-30T03:58:30.377Z,0.00
2018-08-30T03:59:05.799Z,0.00
2018-08-30T03:59:41.206Z,0.00
2018-08-30T04:00:16.548Z,0.00
2018-08-30T04:00:51.876Z,0.00
2018-08-30T04:01:27.113Z,0.00
2018-08-30T04:02:02.148Z,0.00
2018-08-30T04:02:37.437Z,0.00
2018-08-30T04:03:12.757Z,0.00
2018-08-30T04:03:48.299Z,0.00
2018-08-30T04:04:23.760Z,0.00
2018-08-30T04:04:59.138Z,0.00
2018-08-30T04:05:34.343Z,0.00
2018-08-30T04:06:09.674Z,0.00
2018-08-30T04:06:44.907Z,0.00
2018-08-30T04:07:20.451Z,0.00
2018-08-30T04:07:55.661Z,0.00
2018-08-30T04:08:30.986Z,0.00
2018-08-30T04:09:06.603Z,0.00
2018-08-30T04:09:41.800Z,0.00
2018-08-30T04:10:17.236Z,0.00
2018-08-30T04:10:52.583Z,0.00
2018-08-30T04:14:07.119Z,0.00
2018-08-30T04:14:42.554Z,0.00
2018-08-30T04:15:17.965Z,0.00
2018-08-30T04:17:55.415Z,0.00
2018-08-30T04:18:30.708Z,0.00
2018-08-30T04:19:06.133Z,0.00
2018-08-30T04:19:42.207Z,0.00
2018-08-30T04:20:17.533Z,0.00
2018-08-30T04:20:53.044Z,0.00
2018-08-30T04:21:28.654Z,0.00
2018-08-30T04:22:04.467Z,0.00
2018-08-30T04:22:39.566Z,0.00
2018-08-30T04:23:14.971Z,0.00
2018-08-30T04:23:50.282Z,0.00
2018-08-30T04:24:25.864Z,0.00
2018-08-30T04:25:00.889Z,0.00
2018-08-30T04:25:36.163Z,0.00
2018-08-30T04:26:12.692Z,0.00
2018-08-30T04:26:47.939Z,0.00
2018-08-30T04:27:23.339Z,0.00
2018-08-30T04:27:58.757Z,0.00
2018-08-30T04:28:34.125Z,0.00
2018-08-30T04:29:09.617Z,0.00
2018-08-30T04:29:44.967Z,0.00
2018-08-30T04:30:20.058Z,0.00
2018-08-30T04:30:56.066Z,0.00
2018-08-30T04:31:31.306Z,0.00
2018-08-30T04:32:06.672Z,0.00
2018-08-30T04:32:41.970Z,0.00
2018-08-30T04:33:17.588Z,0.00
2018-08-30T04:33:53.185Z,0.00
2018-08-30T04:34:28.514Z,0.00
2018-08-30T04:35:03.843Z,0.00
2018-08-30T04:35:40.323Z,0.00
2018-08-30T04:36:15.857Z,0.00
2018-08-30T04:36:54.086Z,0.00
2018-08-30T04:37:29.302Z,0.00
2018-08-30T04:38:05.434Z,0.00
2018-08-30T04:38:40.816Z,0.00
2018-08-30T04:39:16.326Z,0.00
2018-08-30T04:39:51.829Z,0.00
2018-08-30T04:40:27.493Z,0.00
2018-08-30T04:41:02.646Z,0.00
2018-08-30T04:41:37.873Z,0.00
2018-08-30T04:42:13.135Z,0.00
2018-08-30T04:42:48.303Z,0.00
2018-08-30T04:43:23.528Z,0.00
2018-08-30T04:43:58.945Z,0.00
2018-08-30T04:47:13.399Z,0.00
2018-08-30T04:47:48.607Z,0.00
2018-08-30T04:48:23.706Z,0.00
2018-08-30T04:48:59.550Z,0.00
2018-08-30T04:49:35.567Z,0.00
2018-08-30T04:52:12.237Z,0.00
2018-08-30T04:52:47.629Z,0.00
2018-08-30T04:53:22.947Z,0.00
2018-08-30T04:53:58.063Z,0.00
2018-08-30T04:54:33.136Z,0.00
2018-08-30T04:55:08.559Z,0.00
2018-08-30T04:55:44.957Z,0.00
2018-08-30T04:56:20.494Z,0.00
2018-08-30T04:56:56.107Z,0.00
2018-08-30T04:57:31.380Z,0.00
2018-08-30T04:58:06.886Z,0.00
2018-08-30T04:58:42.467Z,0.00
2018-08-30T04:59:17.907Z,0.00
2018-08-30T04:59:53.430Z,0.00
2018-08-30T05:00:28.547Z,0.00
2018-08-30T05:01:04.483Z,0.00
2018-08-30T05:01:39.656Z,0.00
2018-08-30T05:02:14.919Z,5.00
2018-08-30T05:02:50.322Z,5.00
2018-08-30T05:03:25.623Z,5.00
2018-08-30T05:04:00.819Z,5.00
2018-08-30T05:04:35.989Z,5.00
2018-08-30T05:07:51.341Z,5.00
2018-08-30T05:11:05.956Z,5.00
2018-08-30T05:11:42.002Z,5.00
2018-08-30T05:12:17.217Z,5.00
2018-08-30T05:12:52.390Z,5.00
2018-08-30T05:13:28.011Z,5.00
2018-08-30T05:14:03.298Z,5.00
2018-08-30T05:14:38.787Z,5.00
2018-08-30T05:15:14.400Z,5.00
2018-08-30T05:15:50.281Z,5.00
2018-08-30T05:16:26.004Z,11.00
2018-08-30T05:17:01.913Z,11.00
2018-08-30T05:17:37.434Z,5.00
2018-08-30T05:20:51.859Z,5.00
2018-08-30T05:21:27.233Z,5.00
2018-08-30T05:22:02.750Z,11.00
2018-08-30T05:22:37.752Z,11.00
2018-08-30T05:23:13.175Z,11.00
2018-08-30T05:23:48.332Z,5.00
2018-08-30T05:24:23.658Z,5.00
2018-08-30T05:24:58.761Z,5.00
2018-08-30T05:25:34.858Z,5.00
2018-08-30T05:26:10.008Z,5.00
2018-08-30T05:26:45.605Z,5.00
2018-08-30T05:27:20.807Z,11.00
2018-08-30T05:29:57.305Z,16.00
2018-08-30T05:30:32.377Z,16.00
2018-08-30T05:31:08.004Z,16.00
2018-08-30T05:31:43.299Z,11.00
2018-08-30T05:32:18.735Z,11.00
2018-08-30T05:32:54.239Z,11.00
2018-08-30T05:33:29.850Z,11.00
2018-08-30T05:34:05.472Z,11.00
2018-08-30T05:34:40.865Z,11.00
2018-08-30T05:35:16.895Z,11.00
2018-08-30T05:35:53.037Z,11.00
2018-08-30T05:36:28.459Z,11.00
2018-08-30T05:37:04.267Z,11.00
2018-08-30T05:37:39.482Z,16.00
2018-08-30T05:40:53.919Z,11.00
2018-08-30T05:41:29.242Z,11.00
2018-08-30T05:42:04.767Z,11.00
2018-08-30T05:44:42.266Z,5.00
2018-08-30T05:45:17.805Z,5.00
2018-08-30T05:45:54.680Z,5.00
2018-08-30T05:46:30.519Z,5.00
2018-08-30T05:47:05.921Z,5.00
2018-08-30T05:47:40.911Z,5.00
2018-08-30T05:48:17.825Z,5.00
2018-08-30T05:50:54.314Z,11.00
2018-08-30T05:51:29.645Z,11.00
2018-08-30T05:52:04.974Z,11.00
2018-08-30T05:52:40.240Z,11.00
2018-08-30T05:53:15.839Z,11.00
2018-08-30T05:53:51.824Z,11.00
2018-08-30T05:54:27.111Z,11.00
2018-08-30T05:55:02.738Z,11.00
2018-08-30T05:55:38.135Z,11.00
2018-08-30T05:56:13.570Z,11.00
2018-08-30T05:56:48.976Z,16.00
2018-08-30T05:57:24.768Z,16.00
2018-08-30T05:58:00.543Z,16.00
2018-08-30T05:58:36.540Z,16.00
2018-08-30T05:59:12.044Z,22.00
2018-08-30T05:59:47.343Z,22.00
2018-08-30T06:00:22.440Z,22.00
2018-08-30T06:02:58.941Z,22.00
2018-08-30T06:03:34.140Z,28.00
2018-08-30T06:04:09.662Z,22.00
2018-08-30T06:04:44.947Z,22.00
2018-08-30T06:05:20.589Z,16.00
2018-08-30T06:05:56.183Z,16.00
2018-08-30T06:06:31.603Z,16.00
2018-08-30T06:07:06.953Z,16.00
2018-08-30T06:07:42.144Z,16.00
2018-08-30T06:08:17.586Z,16.00
2018-08-30T06:08:53.524Z,16.00
2018-08-30T06:09:29.036Z,16.00
2018-08-30T06:10:04.353Z,16.00
2018-08-30T06:10:39.641Z,22.00
2018-08-30T06:11:15.403Z,22.00
2018-08-30T06:11:50.813Z,28.00
2018-08-30T06:12:26.764Z,28.00
2018-08-30T06:13:02.204Z,28.00
2018-08-30T06:13:37.477Z,22.00
2018-08-30T06:14:13.009Z,22.00
2018-08-30T06:14:48.312Z,22.00
2018-08-30T06:15:23.710Z,22.00
2018-08-30T06:15:59.231Z,22.00
2018-08-30T06:16:34.901Z,16.00
2018-08-30T06:17:10.901Z,22.00
2018-08-30T06:17:46.311Z,22.00
2018-08-30T06:20:22.848Z,33.00
2018-08-30T06:20:58.135Z,33.00
2018-08-30T06:21:34.164Z,33.00
2018-08-30T06:24:11.121Z,45.00
2018-08-30T06:24:46.544Z,56.00
2018-08-30T06:25:21.771Z,50.00
2018-08-30T06:25:57.160Z,50.00
2018-08-30T06:26:32.410Z,39.00
2018-08-30T06:27:07.740Z,50.00
2018-08-30T06:27:42.932Z,45.00
2018-08-30T06:28:18.413Z,50.00
2018-08-30T06:28:54.713Z,50.00
2018-08-30T06:29:30.122Z,56.00
2018-08-30T06:30:05.359Z,56.00
2018-08-30T06:30:40.726Z,61.00
2018-08-30T06:31:16.066Z,67.00
2018-08-30T06:31:52.157Z,61.00
2018-08-30T06:35:06.520Z,67.00
2018-08-30T06:37:43.849Z,45.00
2018-08-30T06:38:19.146Z,39.00
2018-08-30T06:38:54.658Z,39.00
2018-08-30T06:39:29.965Z,33.00
2018-08-30T06:40:05.290Z,39.00
2018-08-30T06:40:40.483Z,33.00
2018-08-30T06:41:16.019Z,39.00
2018-08-30T06:41:51.520Z,39.00
2018-08-30T06:42:27.018Z,45.00
2018-08-30T06:43:02.227Z,50.00
2018-08-30T06:43:37.526Z,56.00
2018-08-30T06:46:51.902Z,56.00
2018-08-30T06:47:27.500Z,61.00
2018-08-30T06:48:02.666Z,61.00
2018-08-30T06:48:38.233Z,61.00
2018-08-30T06:49:14.020Z,56.00
2018-08-30T06:49:49.108Z,56.00
2018-08-30T06:50:24.420Z,56.00
2018-08-30T06:50:59.619Z,61.00
2018-08-30T06:51:35.164Z,61.00
2018-08-30T06:52:10.510Z,61.00
2018-08-30T06:52:45.694Z,61.00
2018-08-30T06:53:21.225Z,61.00
2018-08-30T06:53:56.508Z,56.00
2018-08-30T06:54:32.271Z,56.00
2018-08-30T06:55:07.689Z,61.00
2018-08-30T06:55:42.975Z,73.00
2018-08-30T06:56:18.767Z,78.00
2018-08-30T06:56:53.927Z,90.00
2018-08-30T06:57:29.643Z,101.00
2018-08-30T06:58:04.859Z,118.00
2018-08-30T06:58:39.963Z,101.00
2018-08-30T06:59:15.302Z,84.00
2018-08-30T07:02:30.758Z,90.00
2018-08-30T07:03:06.162Z,84.00
2018-08-30T07:06:20.631Z,39.00
2018-08-30T07:06:55.850Z,45.00
2018-08-30T07:07:32.286Z,50.00
2018-08-30T07:08:08.176Z,45.00
2018-08-30T07:11:22.783Z,50.00
2018-08-30T07:11:58.301Z,45.00
2018-08-30T07:12:33.330Z,56.00
2018-08-30T07:13:10.241Z,61.00
2018-08-30T07:13:45.762Z,50.00
2018-08-30T07:14:20.862Z,61.00
2018-08-30T07:14:56.182Z,61.00
2018-08-30T07:15:31.649Z,50.00
2018-08-30T07:16:07.158Z,50.00
2018-08-30T07:16:42.398Z,56.00
2018-08-30T07:17:18.003Z,61.00
2018-08-30T07:17:53.302Z,67.00
2018-08-30T07:18:28.912Z,73.00
2018-08-30T07:19:04.133Z,73.00
2018-08-30T07:19:39.209Z,78.00
2018-08-30T07:20:14.415Z,84.00
2018-08-30T07:20:49.634Z,90.00
2018-08-30T07:21:24.981Z,101.00
2018-08-30T07:22:00.258Z,118.00
2018-08-30T07:22:35.597Z,151.00
2018-08-30T07:23:11.070Z,168.00
2018-08-30T07:23:46.336Z,151.00
2018-08-30T07:24:21.909Z,140.00
2018-08-30T07:24:57.080Z,163.00
2018-08-30T07:25:32.487Z,174.00
2018-08-30T07:26:07.878Z,208.00
2018-08-30T07:26:43.231Z,191.00
2018-08-30T07:27:18.552Z,157.00
2018-08-30T07:27:53.967Z,157.00
2018-08-30T07:28:29.238Z,163.00
2018-08-30T07:29:04.775Z,163.00
2018-08-30T07:29:40.448Z,140.00
2018-08-30T07:30:16.218Z,157.00
2018-08-30T07:30:51.518Z,163.00
2018-08-30T07:31:26.858Z,185.00
2018-08-30T07:32:01.957Z,202.00
2018-08-30T07:32:37.278Z,202.00
2018-08-30T07:33:12.405Z,202.00
2018-08-30T07:33:47.729Z,225.00
2018-08-30T07:34:23.160Z,281.00
2018-08-30T07:34:58.606Z,376.00
2018-08-30T07:35:33.619Z,213.00
2018-08-30T07:36:09.019Z,208.00
2018-08-30T07:36:44.350Z,213.00
2018-08-30T07:37:19.810Z,253.00
2018-08-30T07:37:55.054Z,275.00
2018-08-30T07:38:30.394Z,416.00
2018-08-30T07:39:05.604Z,506.00
2018-08-30T07:39:41.126Z,365.00
2018-08-30T07:40:16.763Z,382.00
2018-08-30T07:40:52.086Z,517.00
2018-08-30T07:41:27.426Z,286.00
2018-08-30T07:42:02.561Z,219.00
2018-08-30T07:42:38.217Z,241.00
2018-08-30T07:43:13.660Z,393.00
2018-08-30T07:43:49.118Z,489.00
2018-08-30T07:44:24.686Z,331.00
2018-08-30T07:44:59.909Z,489.00
2018-08-30T07:45:35.156Z,281.00
2018-08-30T07:46:10.567Z,523.00
2018-08-30T07:46:45.786Z,517.00
2018-08-30T07:47:21.487Z,506.00
2018-08-30T07:47:56.747Z,511.00
2018-08-30T07:48:32.114Z,281.00
2018-08-30T07:49:07.494Z,286.00
2018-08-30T07:49:42.722Z,405.00
2018-08-30T07:50:18.136Z,270.00
2018-08-30T07:50:53.728Z,534.00
2018-08-30T07:51:29.091Z,326.00
2018-08-30T07:52:04.400Z,534.00
2018-08-30T07:52:39.919Z,534.00
2018-08-30T07:53:15.310Z,393.00
2018-08-30T07:53:50.816Z,573.00
2018-08-30T07:54:26.337Z,551.00
2018-08-30T07:55:01.852Z,320.00
2018-08-30T07:55:37.395Z,528.00
2018-08-30T07:56:12.498Z,540.00
2018-08-30T07:56:47.699Z,433.00
2018-08-30T07:57:23.167Z,511.00
2018-08-30T07:57:58.554Z,393.00
2018-08-30T07:58:34.088Z,298.00
2018-08-30T07:59:09.402Z,489.00
2018-08-30T07:59:44.738Z,511.00
2018-08-30T08:00:20.082Z,517.00
2018-08-30T08:00:55.073Z,495.00
2018-08-30T08:01:30.420Z,472.00
2018-08-30T08:02:05.624Z,365.00
2018-08-30T08:02:40.833Z,309.00
2018-08-30T08:03:15.991Z,540.00
2018-08-30T08:03:51.387Z,427.00
2018-08-30T08:04:27.059Z,320.00
2018-08-30T08:05:02.588Z,500.00
2018-08-30T08:05:37.910Z,348.00
2018-08-30T08:06:13.137Z,388.00
2018-08-30T08:06:48.246Z,292.00
2018-08-30T08:07:23.596Z,303.00
2018-08-30T08:07:58.811Z,416.00
2018-08-30T08:08:34.218Z,292.00
2018-08-30T08:09:09.425Z,275.00
2018-08-30T08:09:44.795Z,230.00
2018-08-30T08:10:20.108Z,264.00
2018-08-30T08:10:55.411Z,354.00
2018-08-30T08:11:30.778Z,450.00
2018-08-30T08:12:06.139Z,281.00
2018-08-30T08:12:41.262Z,320.00
2018-08-30T08:13:16.754Z,562.00
2018-08-30T08:13:52.175Z,540.00
2018-08-30T08:14:27.912Z,500.00
2018-08-30T08:15:03.109Z,534.00
2018-08-30T08:15:38.413Z,562.00
2018-08-30T08:16:14.040Z,585.00
2018-08-30T08:16:49.410Z,343.00
2018-08-30T08:17:24.833Z,388.00
2018-08-30T08:18:00.253Z,579.00
2018-08-30T08:18:36.094Z,438.00
2018-08-30T08:19:11.312Z,281.00
2018-08-30T08:19:46.709Z,573.00
2018-08-30T08:20:22.308Z,286.00
2018-08-30T08:20:57.709Z,556.00
2018-08-30T08:21:32.765Z,551.00
2018-08-30T08:22:08.160Z,551.00
2018-08-30T08:22:43.689Z,562.00
2018-08-30T08:23:18.878Z,371.00
2018-08-30T08:23:54.410Z,551.00
2018-08-30T08:24:29.660Z,540.00
2018-08-30T08:25:05.359Z,551.00
2018-08-30T08:25:41.000Z,573.00
2018-08-30T08:26:16.536Z,568.00
2018-08-30T08:26:51.697Z,483.00
2018-08-30T08:27:26.752Z,562.00
2018-08-30T08:28:02.073Z,545.00
2018-08-30T08:28:37.412Z,562.00
2018-08-30T08:29:12.720Z,573.00
2018-08-30T08:29:48.292Z,568.00
2018-08-30T08:30:23.483Z,534.00
2018-08-30T08:30:59.233Z,540.00